Latest Weather Observations for Hillarys Point Boat Harbour

IDW60801

Issued at 12:35 pm WST Thursday 24 April 2014 (issued every 30 minutes, with the page automatically refreshed every 10 minutes)

About weather observations | Map of weather stations | Latest weather observations for WA | Other Formats
Station Details ID: 009265 Name: HILLARYS BOAT HARBOUR NTC AWS Lat: -31.83 Lon: 115.74 Height: 0.0 m
Data from the previous 72 hours. | See also: Recent months for locations in Western Australia
Date/Time
WST
Temp
°C
App
Temp
°C
Dew
Point
Rel
Hum
%
Delta-T
°C
Wind Press
QNH
hPa
Press
MSL
hPa
Rain
since 9 am
mm
Dir
 
Spd
km/h
Gust
km/h
Spd
kts
Gust
kts
24/12:30pm - - - - - SSW 7 15 4 8 1008.1 - -
24/12:00pm - - - - - SW 7 15 4 8 1008.3 1008.3 -
24/11:30am - - - - - SSW 6 11 3 6 1008.5 - -
24/11:00am - - - - - SSW 6 11 3 6 1008.8 1008.8 -
24/10:30am - - - - - SW 4 7 2 4 1009.4 - -
24/10:00am - - - - - SE 2 6 1 3 1009.5 1009.5 -
24/09:30am - - - - - ENE 4 7 2 4 1010.1 - -
24/09:00am - - - - - E 6 11 3 6 1010.1 1010.1 -
24/08:30am - - - - - SSE 2 7 1 4 1010.1 - -
24/08:00am - - - - - SE 2 6 1 3 1010.2 1010.2 -
24/07:30am - - - - - ESE 4 7 2 4 1010.0 - -
24/07:00am - - - - - E 4 11 2 6 1009.9 1009.9 -
24/06:30am - - - - - E 15 26 8 14 1009.3 - -
24/06:00am - - - - - E 15 24 8 13 1009.2 1009.2 -
24/05:30am - - - - - E 15 24 8 13 1009.4 - -
24/05:00am - - - - - E 15 26 8 14 1009.4 1009.4 -
24/04:30am - - - - - E 15 28 8 15 1009.7 - -
24/04:00am - - - - - E 15 26 8 14 1009.9 1009.9 -
24/03:30am - - - - - E 11 20 6 11 1010.2 - -
24/03:00am - - - - - E 13 22 7 12 1010.5 1010.5 -
24/02:30am - - - - - E 13 20 7 11 1010.9 - -
24/02:00am - - - - - E 13 22 7 12 1011.3 1011.3 -
24/01:30am - - - - - E 13 20 7 11 1011.8 - -
24/01:00am - - - - - E 11 20 6 11 1011.8 1011.8 -
24/12:30am - - - - - E 9 20 5 11 1011.9 - -
24/12:00am - - - - - E 7 13 4 7 1012.1 1012.1 -
 
Date/Time
WST
Temp
°C
App
Temp
°C
Dew
Point
Rel
Hum
%
Delta-T
°C
Wind Press
QNH
hPa
Press
MSL
hPa
Rain
since 9 am
mm
Dir
 
Spd
km/h
Gust
km/h
Spd
kts
Gust
kts
23/11:30pm - - - - - E 7 17 4 9 1012.3 - -
23/11:00pm - - - - - E 6 13 3 7 1012.6 1012.6 -
23/10:30pm - - - - - E 6 13 3 7 1013.0 - -
23/10:00pm - - - - - E 4 9 2 5 1013.2 1013.2 -
23/09:30pm - - - - - ESE 2 6 1 3 1013.4 - -
23/09:00pm - - - - - SE 2 6 1 3 1013.6 1013.6 -
23/08:30pm - - - - - ESE 2 4 1 2 1013.7 - -
23/08:00pm - - - - - SSE 6 9 3 5 1013.9 1013.9 -
23/07:30pm - - - - - S 7 15 4 8 1013.7 - -
23/07:00pm - - - - - S 6 19 3 10 1013.6 1013.6 -
23/06:30pm - - - - - S 6 13 3 7 1013.5 - -
23/06:00pm - - - - - S 6 15 3 8 1013.2 1013.2 -
23/05:30pm - - - - - S 6 13 3 7 1013.1 - -
23/05:00pm - - - - - SSW 6 15 3 8 1013.2 1013.2 -
23/04:30pm - - - - - SSW 7 17 4 9 1013.2 - -
23/04:00pm - - - - - SSW 9 22 5 12 1013.3 1013.3 -
23/03:30pm - - - - - SSW 11 24 6 13 1013.3 - -
23/03:00pm - - - - - SSW 11 20 6 11 1013.5 1013.5 -
23/02:30pm - - - - - SSW 15 28 8 15 1013.6 - -
23/02:00pm - - - - - SSW 13 24 7 13 1013.7 1013.7 -
23/01:30pm - - - - - SSW 9 20 5 11 1014.0 - -
23/01:00pm - - - - - SSW 11 20 6 11 1014.6 1014.6 -
23/12:30pm - - - - - SSW 9 20 5 11 1015.2 - -
23/12:00pm - - - - - S 7 15 4 8 1015.6 1015.6 -
23/11:30am - - - - - S 9 19 5 10 1016.0 - -
23/11:00am - - - - - SSE 7 17 4 9 1016.4 1016.4 -
23/10:30am - - - - - SSE 7 19 4 10 1016.8 - -
23/10:00am - - - - - SE 4 13 2 7 1017.2 1017.2 -
23/09:30am - - - - - E 4 11 2 6 1017.7 - -
23/09:00am - - - - - E 6 15 3 8 1018.0 1018.0 -
23/08:30am - - - - - E 4 11 2 6 1017.9 - -
23/08:00am - - - - - E 7 15 4 8 1017.6 1017.6 -
23/07:30am - - - - - E 6 13 3 7 1017.2 - -
23/07:00am - - - - - E 7 13 4 7 1017.0 1017.0 -
23/06:30am - - - - - E 7 17 4 9 1017.0 - -
23/06:00am - - - - - E 4 11 2 6 1017.0 1017.0 -
23/05:30am - - - - - E 4 7 2 4 1017.2 - -
23/05:00am - - - - - E 4 9 2 5 1017.2 1017.2 -
23/04:30am - - - - - E 4 7 2 4 1017.0 - -
23/04:00am - - - - - E 2 11 1 6 1016.8 1016.8 -
23/03:30am - - - - - SE 4 11 2 6 1016.9 - -
23/03:00am - - - - - SE 4 9 2 5 1017.2 1017.2 -
23/02:30am - - - - - SSE 7 17 4 9 1017.4 - -
23/02:00am - - - - - SSE 11 20 6 11 1017.3 1017.3 -
23/01:30am - - - - - SSE 11 19 6 10 1017.3 - -
23/01:00am - - - - - S 9 17 5 9 1017.1 1017.1 -
23/12:30am - - - - - SSE 11 19 6 10 1017.1 - -
23/12:00am - - - - - SSE 9 17 5 9 1017.3 1017.3 -
 
Date/Time
WST
Temp
°C
App
Temp
°C
Dew
Point
Rel
Hum
%
Delta-T
°C
Wind Press
QNH
hPa
Press
MSL
hPa
Rain
since 9 am
mm
Dir
 
Spd
km/h
Gust
km/h
Spd
kts
Gust
kts
22/11:30pm - - - - - SSE 11 20 6 11 1017.6 - -
22/11:00pm - - - - - SSE 11 19 6 10 1017.7 1017.7 -
22/10:30pm - - - - - SSE 9 17 5 9 1018.2 - -
22/10:00pm - - - - - SSE 9 19 5 10 1018.2 1018.2 -
22/09:30pm - - - - - SSE 11 17 6 9 1018.2 - -
22/09:00pm - - - - - SSE 7 15 4 8 1018.3 1018.3 -
22/08:30pm - - - - - SSE 9 19 5 10 1017.9 - -
22/08:00pm - - - - - S 9 24 5 13 1018.1 1018.1 -
22/07:30pm - - - - - S 7 19 4 10 1018.2 - -
22/07:00pm - - - - - S 7 19 4 10 1017.8 1017.8 -
22/06:30pm - - - - - S 7 19 4 10 1017.0 - -
22/06:00pm - - - - - SSW 7 19 4 10 1016.7 1016.7 -
22/05:30pm - - - - - SSW 9 22 5 12 1016.8 - -
22/05:00pm - - - - - SSW 9 19 5 10 1016.9 1016.9 -
22/04:30pm - - - - - SSW 11 22 6 12 1017.1 - -
22/04:00pm - - - - - SSW 13 22 7 12 1017.2 1017.2 -
22/03:30pm - - - - - SSW 11 24 6 13 1017.2 - -
22/03:00pm - - - - - SSW 11 22 6 12 1017.3 1017.3 -
22/02:30pm - - - - - SSW 13 22 7 12 1017.5 - -
22/02:00pm - - - - - SW 13 20 7 11 1017.6 1017.6 -
22/01:30pm - - - - - SSW 13 22 7 12 1018.0 - -
22/01:00pm - - - - - SSW 11 19 6 10 1018.4 1018.4 -
22/12:30pm - - - - - SW 11 20 6 11 1019.0 - -
22/12:00pm - - - - - SW 9 17 5 9 1019.4 1019.4 -
22/11:30am - - - - - SSW 7 11 4 6 1019.7 - -
22/11:00am - - - - - SW 7 13 4 7 1020.1 1020.1 -
22/10:30am - - - - - SW 7 11 4 6 1020.5 - -
22/10:00am - - - - - SW 6 11 3 6 1020.6 1020.6 -
22/09:30am - - - - - S 2 7 1 4 1020.8 - -
22/09:00am - - - - - W 4 7 2 4 1020.7 1020.7 -
22/08:30am - - - - - ENE 7 15 4 8 1020.6 - -
22/08:00am - - - - - E 4 7 2 4 1020.3 1020.3 -
22/07:30am - - - - - E 2 4 1 2 1020.2 - -
22/07:00am - - - - - ESE 2 4 1 2 1020.0 1020.0 -
22/06:30am - - - - - CALM 0 2 0 1 1019.8 - -
22/06:00am - - - - - SE 2 6 1 3 1019.6 1019.6 -
22/05:30am - - - - - SE 2 7 1 4 1019.5 - -
22/05:00am - - - - - SE 2 7 1 4 1019.4 1019.4 -
22/04:30am - - - - - E 2 7 1 4 1019.5 - -
22/04:00am - - - - - SE 2 7 1 4 1019.3 1019.3 -
22/03:30am - - - - - CALM 0 4 0 2 1019.2 - -
22/03:00am - - - - - ESE 2 6 1 3 1019.2 1019.2 -
22/02:30am - - - - - SSE 4 9 2 5 1019.2 - -
22/02:00am - - - - - ESE 2 6 1 3 1019.3 1019.3 -
22/01:30am - - - - - E 2 6 1 3 1019.5 - -
22/01:00am - - - - - SSE 6 9 3 5 1019.4 1019.4 -
22/12:30am - - - - - SSE 2 7 1 4 1019.4 - -
22/12:00am - - - - - SE 2 7 1 4 1019.6 1019.6 -
 
Date/Time
WST
Temp
°C
App
Temp
°C
Dew
Point
Rel
Hum
%
Delta-T
°C
Wind Press
QNH
hPa
Press
MSL
hPa
Rain
since 9 am
mm
Dir
 
Spd
km/h
Gust
km/h
Spd
kts
Gust
kts
21/11:30pm - - - - - SE 2 7 1 4 1019.9 - -
21/11:00pm - - - - - SSE 6 13 3 7 1020.0 1020.0 -
21/10:30pm - - - - - SSE 9 19 5 10 1020.1 - -
21/10:00pm - - - - - SSE 7 17 4 9 1020.2 1020.2 -
21/09:30pm - - - - - SSE 9 17 5 9 1020.3 - -
21/09:00pm - - - - - SSE 7 15 4 8 1020.3 1020.3 -
21/08:30pm - - - - - SSE 7 17 4 9 1020.3 - -
21/08:00pm - - - - - S 9 22 5 12 1020.1 1020.1 -
21/07:30pm - - - - - S 6 22 3 12 1019.8 - -
21/07:00pm - - - - - SSW 9 22 5 12 1019.5 1019.5 -
21/06:30pm - - - - - SSW 9 24 5 13 1018.9 - -
21/06:00pm - - - - - SSW 11 26 6 14 1018.6 1018.6 -
21/05:30pm - - - - - SSW 13 26 7 14 1018.4 - -
21/05:00pm - - - - - SSW 13 26 7 14 1018.2 1018.2 -
21/04:30pm - - - - - SSW 15 24 8 13 1018.2 - -
21/04:00pm - - - - - SSW 13 19 7 10 1018.2 1018.2 -
21/03:30pm - - - - - SSW 13 24 7 13 1018.3 - -
21/03:00pm - - - - - SSW 13 22 7 12 1018.2 1018.2 -
21/02:30pm - - - - - SSW 13 20 7 11 1018.2 - -
21/02:00pm - - - - - SSW 13 22 7 12 1018.3 1018.3 -
21/01:30pm - - - - - SSW 13 22 7 12 1018.2 - -
21/01:00pm - - - - - SSW 13 22 7 12 1018.4 1018.4 -

Other Formats:

Comma delimited format used in spreadsheet applications
http://www.bom.gov.au/fwo/IDW60801/IDW60801.95605.axf

JavaScript Object Notation format (JSON) in row-major order
http://www.bom.gov.au/fwo/IDW60801/IDW60801.95605.json